Time;durP1;ratioP1;P1;durP2;ratioP2;P2;SDS_P1;SDS_P2;PMS_P1;PMS_P2;Temp;Humidity;BMP_temperature;BMP_pressure;BME280_temperature;BME280_humidity;BME280_pressure;Samples;Min_cycle;Max_cycle;Signal;HPM_P1;HPM_P2
2022/06/11 00:01:14;;;;;;;24.20;16.13;;;;;;;19.21;100.00;99208.25;5058927;28;20047;-71
2022/06/11 00:03:40;;;;;;;22.20;16.95;;;;;;;19.17;100.00;99200.88;5058347;28;20033;-72
2022/06/11 00:06:05;;;;;;;24.65;17.45;;;;;;;19.36;100.00;99205.94;5057712;28;20029;-72
2022/06/11 00:08:31;;;;;;;24.95;17.48;;;;;;;19.36;100.00;99205.13;5058531;28;20075;-72
2022/06/11 00:10:57;;;;;;;26.52;18.13;;;;;;;19.41;100.00;99197.19;5060582;28;20029;-72
2022/06/11 00:13:23;;;;;;;22.05;17.25;;;;;;;19.57;100.00;99185.78;5060838;28;20310;-72
2022/06/11 00:15:53;;;;;;;22.00;16.10;;;;;;;19.60;100.00;99189.84;5058059;28;20020;-72
2022/06/11 00:18:20;;;;;;;23.35;16.10;;;;;;;19.61;100.00;99184.25;5058844;28;20041;-72
2022/06/11 00:20:46;;;;;;;22.80;15.50;;;;;;;19.65;100.00;99184.59;5057609;28;20032;-72
2022/06/11 00:23:12;;;;;;;20.50;15.57;;;;;;;19.71;100.00;99172.91;5057588;28;20104;-72
2022/06/11 00:25:37;;;;;;;24.75;15.80;;;;;;;19.83;100.00;99183.69;5058741;28;20259;-72
2022/06/11 00:28:05;;;;;;;23.83;17.05;;;;;;;19.80;100.00;99178.78;5057462;28;20028;-72
2022/06/11 00:30:31;;;;;;;18.23;15.68;;;;;;;19.74;100.00;99170.59;5055010;28;20332;-72
2022/06/11 00:32:57;;;;;;;23.75;17.23;;;;;;;19.88;100.00;99175.72;5040619;28;20048;-72
2022/06/11 00:35:25;;;;;;;24.23;16.05;;;;;;;19.98;100.00;99173.25;5057542;28;20025;-72
2022/06/11 00:37:51;;;;;;;21.75;16.60;;;;;;;19.94;100.00;99164.84;5058424;28;20040;-72
2022/06/11 00:40:24;;;;;;;20.42;15.40;;;;;;;19.95;100.00;99171.03;5057512;28;20361;-72
2022/06/11 00:42:50;;;;;;;20.67;15.27;;;;;;;19.95;100.00;99163.81;5041308;28;20028;-72
2022/06/11 00:45:40;;;;;;;26.13;15.68;;;;;;;19.83;100.00;99168.38;5040727;28;20028;-72
2022/06/11 00:48:16;;;;;;;24.02;16.08;;;;;;;19.88;100.00;99163.13;5057296;28;20033;-72
2022/06/11 00:51:07;;;;;;;20.55;14.80;;;;;;;20.10;100.00;99166.00;5054731;28;20202;-72
2022/06/11 00:54:01;;;;;;;19.27;14.00;;;;;;;20.23;100.00;99173.78;5043814;28;20053;-72
2022/06/11 00:56:40;;;;;;;21.90;13.32;;;;;;;20.29;100.00;99183.56;5042122;28;20077;-72
2022/06/11 00:59:12;;;;;;;18.73;13.20;;;;;;;20.32;100.00;99176.91;5059594;28;20045;-72
2022/06/11 01:01:37;;;;;;;16.23;12.82;;;;;;;20.36;100.00;99184.25;5062159;28;20032;-72
2022/06/11 01:04:31;;;;;;;16.35;13.07;;;;;;;20.39;100.00;99183.00;5062187;28;20179;-72
2022/06/11 01:07:18;;;;;;;20.95;13.10;;;;;;;20.31;100.00;99183.34;5064077;28;20060;-72
2022/06/11 01:10:21;;;;;;;19.23;11.80;;;;;;;20.29;100.00;99183.56;5062583;28;20337;-72
2022/06/11 01:13:04;;;;;;;19.92;12.93;;;;;;;20.28;100.00;99170.38;5022138;28;20072;-72
2022/06/11 01:15:44;;;;;;;20.57;13.30;;;;;;;20.21;100.00;99175.06;5061248;28;20048;-72
2022/06/11 01:18:12;;;;;;;16.02;12.40;;;;;;;20.28;100.00;99171.19;5058153;28;20315;-72
2022/06/11 01:21:07;;;;;;;24.33;12.20;;;;;;;20.40;100.00;99171.19;5060108;28;20044;-72
2022/06/11 01:24:05;;;;;;;13.52;11.77;;;;;;;20.26;100.00;99175.16;5044139;28;20071;-72
2022/06/11 01:26:55;;;;;;;14.02;11.60;;;;;;;20.49;100.00;99172.44;5062409;28;20353;-72
2022/06/11 01:29:34;;;;;;;15.52;11.35;;;;;;;20.36;100.00;99170.00;5064413;28;20223;-72
2022/06/11 01:32:09;;;;;;;16.23;12.07;;;;;;;20.33;100.00;99171.28;5065176;28;20039;-72
2022/06/11 01:34:39;;;;;;;16.75;12.02;;;;;;;20.40;100.00;99169.31;5065228;28;20051;-72
2022/06/11 01:37:10;;;;;;;23.85;11.98;;;;;;;20.48;100.00;99161.91;5064866;28;20025;-72
2022/06/11 01:39:42;;;;;;;20.15;13.00;;;;;;;20.54;100.00;99164.47;5064910;28;20142;-72
2022/06/11 01:42:18;;;;;;;16.95;12.27;;;;;;;20.68;100.00;99175.75;5040107;28;20214;-72
2022/06/11 01:44:45;;;;;;;17.13;13.05;;;;;;;20.66;100.00;99184.06;5050522;28;20266;-72
2022/06/11 01:47:14;;;;;;;16.98;11.95;;;;;;;20.67;100.00;99171.41;5055134;28;20025;-72
2022/06/11 01:49:46;;;;;;;18.42;12.70;;;;;;;20.74;100.00;99177.47;5060606;28;20322;-72
2022/06/11 01:52:41;;;;;;;20.30;12.00;;;;;;;20.75;100.00;99173.72;5057616;28;20084;-72
2022/06/11 01:55:13;;;;;;;20.70;12.40;;;;;;;20.50;100.00;99179.44;5060491;28;20036;-72
2022/06/11 01:58:10;;;;;;;20.92;13.85;;;;;;;20.45;100.00;99182.03;5045407;28;20330;-72
2022/06/11 02:00:38;;;;;;;21.65;13.50;;;;;;;20.50;100.00;99173.25;5058638;28;20373;-72
2022/06/11 02:03:28;;;;;;;23.63;14.95;;;;;;;20.29;100.00;99180.06;5049294;28;20037;-72
2022/06/11 02:06:26;;;;;;;29.25;17.52;;;;;;;19.66;100.00;99191.59;5052868;28;20053;-72
2022/06/11 02:09:13;;;;;;;27.92;19.25;;;;;;;19.12;100.00;99198.88;5055475;28;20103;-73
2022/06/11 02:11:49;;;;;;;41.17;20.52;;;;;;;18.73;100.00;99230.63;5044901;28;20040;-73
2022/06/11 02:14:39;;;;;;;34.78;20.77;;;;;;;18.55;100.00;99237.81;5057781;28;20061;-73
2022/06/11 02:17:24;;;;;;;40.08;22.25;;;;;;;18.44;100.00;99250.94;5061762;28;20037;-73
2022/06/11 02:20:12;;;;;;;32.28;21.88;;;;;;;18.40;100.00;99239.03;5037617;28;20044;-73
2022/06/11 02:23:00;;;;;;;37.92;23.75;;;;;;;18.47;100.00;99220.19;5009773;28;20115;-73
2022/06/11 02:25:34;;;;;;;36.53;24.70;;;;;;;18.60;100.00;99217.34;5043035;28;20095;-72
2022/06/11 02:28:04;;;;;;;38.25;23.33;;;;;;;18.72;100.00;99220.09;5041850;28;20037;-73
2022/06/11 02:30:31;;;;;;;34.67;22.58;;;;;;;18.60;100.00;99213.84;5040696;28;20044;-73
2022/06/11 02:33:00;;;;;;;34.58;22.00;;;;;;;18.60;100.00;99219.19;5039791;28;21407;-72
2022/06/11 02:35:31;;;;;;;34.28;23.08;;;;;;;18.48;100.00;99217.28;5040028;28;20032;-72
2022/06/11 02:37:56;;;;;;;28.25;21.73;;;;;;;18.48;100.00;99219.13;5040480;28;20096;-72
2022/06/11 02:40:27;;;;;;;35.25;23.85;;;;;;;18.45;100.00;99217.72;5053443;28;20426;-72
2022/06/11 02:42:53;;;;;;;32.22;22.30;;;;;;;18.52;100.00;99206.91;5062624;28;20100;-72
2022/06/11 02:45:19;;;;;;;35.20;23.27;;;;;;;18.37;100.00;99196.59;5058881;28;20029;-72
2022/06/11 02:47:47;;;;;;;33.15;23.20;;;;;;;18.41;100.00;99205.00;5042173;28;20033;-72
2022/06/11 02:50:24;;;;;;;35.65;22.67;;;;;;;18.51;100.00;99200.75;5059306;28;20040;-72
2022/06/11 02:52:50;;;;;;;30.02;21.85;;;;;;;18.52;100.00;99193.50;5059220;28;20086;-72
2022/06/11 02:55:15;;;;;;;29.77;21.85;;;;;;;18.38;100.00;99192.06;5059501;28;20303;-72
2022/06/11 02:57:41;;;;;;;24.35;17.98;;;;;;;18.36;100.00;99194.13;5060026;28;20032;-72
2022/06/11 03:00:10;;;;;;;29.50;18.05;;;;;;;18.39;100.00;99197.19;5059181;28;20028;-72
2022/06/11 03:02:36;;;;;;;23.67;16.88;;;;;;;18.29;100.00;99204.13;5056393;28;20032;-72
2022/06/11 03:05:03;;;;;;;20.30;15.27;;;;;;;18.41;100.00;99196.97;5061559;28;20094;-72
2022/06/11 03:07:29;;;;;;;24.08;14.70;;;;;;;18.47;100.00;99199.56;5061598;28;20036;-72
2022/06/11 03:09:54;;;;;;;19.15;14.15;;;;;;;18.70;100.00;99200.72;5050697;28;20032;-72
2022/06/11 03:12:20;;;;;;;17.80;12.23;;;;;;;18.71;100.00;99188.94;5059844;28;20028;-72
2022/06/11 03:14:45;;;;;;;14.10;11.27;;;;;;;18.69;100.00;99191.03;5058706;28;20059;-72
2022/06/11 03:17:14;;;;;;;15.63;12.25;;;;;;;18.72;100.00;99204.00;5058721;28;20266;-72
2022/06/11 03:19:39;;;;;;;17.63;12.75;;;;;;;18.69;100.00;99193.72;5059473;28;20040;-72
2022/06/11 03:22:07;;;;;;;20.45;12.70;;;;;;;18.70;100.00;99198.03;5058104;28;20017;-71
2022/06/11 03:24:33;;;;;;;18.08;13.32;;;;;;;18.65;100.00;99201.41;5056211;28;20171;-72
2022/06/11 03:26:59;;;;;;;19.60;14.70;;;;;;;18.63;100.00;99187.41;5041636;28;20021;-72
2022/06/11 03:29:25;;;;;;;22.15;16.05;;;;;;;18.74;100.00;99194.72;5059417;28;20059;-71
2022/06/11 03:31:52;;;;;;;18.60;14.95;;;;;;;18.79;100.00;99185.97;5061594;28;20242;-72
2022/06/11 03:34:18;;;;;;;19.17;14.73;;;;;;;18.83;100.00;99184.47;5060890;28;20032;-72
2022/06/11 03:36:45;;;;;;;18.60;14.55;;;;;;;18.97;100.00;99187.78;5057813;28;20361;-71
2022/06/11 03:39:12;;;;;;;18.70;14.52;;;;;;;19.03;100.00;99187.69;5059610;28;20033;-72
2022/06/11 03:41:38;;;;;;;21.90;15.30;;;;;;;18.94;100.00;99185.56;5061540;28;20024;-72
2022/06/11 03:44:04;;;;;;;24.05;16.33;;;;;;;18.93;100.00;99179.38;5059546;28;20032;-72
2022/06/11 03:46:30;;;;;;;22.70;16.10;;;;;;;18.94;100.00;99177.50;5058119;28;20044;-72
2022/06/11 03:48:56;;;;;;;20.75;15.57;;;;;;;18.92;100.00;99179.59;5059058;28;20025;-71
2022/06/11 03:51:22;;;;;;;23.92;17.50;;;;;;;18.98;100.00;99178.69;5058784;28;20330;-72
2022/06/11 03:53:48;;;;;;;22.75;16.25;;;;;;;18.96;100.00;99181.59;5058173;28;20037;-72
2022/06/11 03:56:15;;;;;;;22.10;16.48;;;;;;;18.84;100.00;99186.09;5059928;28;20058;-72
2022/06/11 03:58:42;;;;;;;20.15;15.60;;;;;;;18.84;100.00;99187.97;5061205;28;20060;-72
2022/06/11 04:01:21;;;;;;;20.02;15.57;;;;;;;18.95;100.00;99184.50;5059643;28;20354;-72
2022/06/11 04:03:56;;;;;;;24.13;17.55;;;;;;;19.24;100.00;99190.84;5058058;28;21692;-72
2022/06/11 04:06:27;;;;;;;21.85;16.48;;;;;;;19.32;100.00;99196.69;5057590;28;20290;-71
2022/06/11 04:08:52;;;;;;;22.33;17.42;;;;;;;19.40;100.00;99195.53;5055318;28;20060;-72
2022/06/11 04:11:20;;;;;;;25.75;17.35;;;;;;;19.60;100.00;99208.66;5058627;28;20079;-72
2022/06/11 04:13:45;;;;;;;21.63;18.48;;;;;;;19.70;100.00;99211.56;5057554;28;20099;-72
2022/06/11 04:16:32;;;;;;;21.52;16.88;;;;;;;19.86;100.00;99220.81;5059061;28;20044;-72
2022/06/11 04:18:59;;;;;;;24.13;17.65;;;;;;;19.95;100.00;99220.22;5054959;28;20059;-72
2022/06/11 04:21:26;;;;;;;28.38;18.45;;;;;;;20.04;100.00;99226.88;5058084;28;20037;-72
2022/06/11 04:23:54;;;;;;;22.17;16.80;;;;;;;19.99;100.00;99210.66;5057551;28;20067;-72
2022/06/11 04:26:25;;;;;;;21.92;16.95;;;;;;;20.00;100.00;99230.28;5057683;28;20037;-72
2022/06/11 04:28:50;;;;;;;22.65;17.17;;;;;;;20.07;100.00;99234.47;5058374;28;20326;-72
2022/06/11 04:31:17;;;;;;;23.98;16.88;;;;;;;20.15;100.00;99235.97;5058489;28;20035;-72
2022/06/11 04:33:47;;;;;;;22.88;16.75;;;;;;;20.13;100.00;99245.34;5060266;28;20044;-72
2022/06/11 04:36:14;;;;;;;24.92;17.67;;;;;;;20.03;100.00;99251.31;5057179;28;20033;-71
2022/06/11 04:38:40;;;;;;;25.40;16.95;;;;;;;19.96;100.00;99261.34;5041130;28;20329;-72
2022/06/11 04:41:07;;;;;;;21.90;16.73;;;;;;;20.00;100.00;99262.53;5060917;28;20033;-72
2022/06/11 04:43:33;;;;;;;25.55;17.50;;;;;;;19.98;100.00;99264.63;5058928;28;20059;-72
2022/06/11 04:45:58;;;;;;;28.15;19.73;;;;;;;19.94;100.00;99269.66;5042775;28;20346;-72
2022/06/11 04:48:24;;;;;;;24.58;18.98;;;;;;;19.87;100.00;99263.56;5060602;28;20029;-72
2022/06/11 04:50:49;;;;;;;27.02;19.52;;;;;;;20.06;100.00;99264.28;5058225;28;20032;-72
2022/06/11 04:53:15;;;;;;;25.35;19.30;;;;;;;20.12;100.00;99273.25;5058393;28;20110;-72
2022/06/11 04:55:40;;;;;;;34.08;20.75;;;;;;;20.22;100.00;99266.22;5057385;28;20029;-72
2022/06/11 04:58:06;;;;;;;22.67;17.73;;;;;;;19.98;100.00;99278.06;5058279;28;20040;-72
2022/06/11 05:00:32;;;;;;;24.98;19.60;;;;;;;20.06;100.00;99280.41;5057649;28;20104;-72
2022/06/11 05:02:58;;;;;;;24.48;19.60;;;;;;;20.08;100.00;99281.78;5044924;28;20210;-72
2022/06/11 05:05:24;;;;;;;28.48;20.15;;;;;;;20.07;100.00;99265.91;5042463;28;20037;-72
2022/06/11 05:07:50;;;;;;;26.05;18.83;;;;;;;20.14;100.00;99263.09;5058285;28;20036;-72
2022/06/11 05:10:19;;;;;;;21.38;15.77;;;;;;;20.07;100.00;99257.84;5057414;28;20033;-72
2022/06/11 05:12:44;;;;;;;105.57;63.60;;;;;;;20.00;100.00;99251.78;5040511;28;20032;-72
2022/06/11 05:15:10;;;;;;;30.08;21.05;;;;;;;20.14;100.00;99261.22;5057463;28;20040;-72
2022/06/11 05:17:36;;;;;;;25.67;19.65;;;;;;;20.06;100.00;99264.28;5056951;28;20025;-71
2022/06/11 05:20:03;;;;;;;26.10;18.73;;;;;;;19.98;100.00;99261.94;5058069;28;20075;-72
2022/06/11 05:22:28;;;;;;;26.05;19.95;;;;;;;19.89;100.00;99282.16;5057407;28;20040;-72
2022/06/11 05:24:54;;;;;;;26.15;18.52;;;;;;;20.02;100.00;99284.59;5057261;28;20021;-71
2022/06/11 05:27:22;;;;;;;24.63;18.98;;;;;;;20.03;100.00;99279.00;5058002;28;20408;-72
2022/06/11 05:29:57;;;;;;;25.73;18.70;;;;;;;19.88;100.00;99272.47;5056675;28;20052;-72
2022/06/11 05:32:27;;;;;;;25.17;18.45;;;;;;;19.86;100.00;99286.13;5057837;28;20044;-71
2022/06/11 05:34:53;;;;;;;20.90;15.10;;;;;;;19.95;100.00;99294.66;5060333;28;20037;-71
2022/06/11 05:37:19;;;;;;;19.48;14.57;;;;;;;19.86;100.00;99296.88;5058780;28;20191;-71
2022/06/11 05:39:48;;;;;;;19.98;15.27;;;;;;;19.95;100.00;99306.22;5056817;28;20220;-71
2022/06/11 05:42:16;;;;;;;18.70;13.52;;;;;;;19.96;100.00;99301.66;5039055;28;20025;-71
2022/06/11 05:44:41;;;;;;;17.38;12.35;;;;;;;20.12;100.00;99322.47;5058209;28;20086;-71
2022/06/11 05:47:09;;;;;;;16.45;11.40;;;;;;;20.06;100.00;99318.84;5059746;28;20041;-71
2022/06/11 05:49:39;;;;;;;16.50;10.95;;;;;;;19.95;100.00;99316.16;5060255;28;20044;-72
2022/06/11 05:52:13;;;;;;;15.27;11.63;;;;;;;20.10;100.00;99308.44;5061597;28;20056;-71
2022/06/11 05:54:40;;;;;;;14.85;11.85;;;;;;;20.05;100.00;99317.19;5061687;28;20068;-72
2022/06/11 05:57:11;;;;;;;14.77;11.13;;;;;;;20.09;100.00;99336.38;5060273;28;20589;-72
2022/06/11 05:59:40;;;;;;;15.13;12.40;;;;;;;20.23;100.00;99336.94;5060234;28;20037;-72
2022/06/11 06:02:10;;;;;;;17.17;11.93;;;;;;;20.35;100.00;99335.88;5060863;28;20017;-72
2022/06/11 06:04:37;;;;;;;15.75;9.85;;;;;;;20.38;100.00;99340.78;5060277;28;20036;-72
2022/06/11 06:07:03;;;;;;;15.25;9.68;;;;;;;20.36;100.00;99345.59;5059769;28;20094;-72
2022/06/11 06:09:29;;;;;;;14.40;10.45;;;;;;;20.42;100.00;99348.41;5060939;28;20108;-72
2022/06/11 06:11:54;;;;;;;12.85;10.48;;;;;;;20.46;100.00;99347.72;5060244;28;20723;-72
2022/06/11 06:14:19;;;;;;;11.80;10.48;;;;;;;20.54;100.00;99362.69;5060838;28;20037;-72
2022/06/11 06:16:45;;;;;;;11.45;9.73;;;;;;;20.65;100.00;99354.59;5063251;28;20244;-72
2022/06/11 06:19:10;;;;;;;12.20;8.82;;;;;;;20.62;100.00;99354.25;5062166;28;20043;-72
2022/06/11 06:21:37;;;;;;;12.68;8.25;;;;;;;20.50;100.00;99340.81;5059926;28;20326;-72
2022/06/11 06:24:03;;;;;;;9.70;8.50;;;;;;;20.43;100.00;99340.13;5062420;28;20119;-72
2022/06/11 06:26:29;;;;;;;12.05;8.18;;;;;;;20.54;100.00;99341.97;5062952;28;20066;-72
2022/06/11 06:28:55;;;;;;;10.02;8.10;;;;;;;20.56;100.00;99339.88;5059562;28;20032;-72
2022/06/11 06:31:21;;;;;;;9.52;7.95;;;;;;;20.66;100.00;99342.78;5060729;28;20029;-72
2022/06/11 06:33:46;;;;;;;13.35;8.55;;;;;;;20.68;100.00;99343.34;5061209;28;20041;-72
2022/06/11 06:36:14;;;;;;;11.07;9.65;;;;;;;20.68;100.00;99326.38;5060869;28;20021;-72
2022/06/11 06:38:41;;;;;;;12.18;8.77;;;;;;;20.55;100.00;99338.22;5063375;28;20036;-72
2022/06/11 06:41:07;;;;;;;8.00;6.80;;;;;;;20.29;100.00;99341.38;5043946;28;20062;-72
2022/06/11 06:43:33;;;;;;;7.45;5.88;;;;;;;20.13;100.00;99337.53;5060628;28;20060;-72
2022/06/11 06:46:00;;;;;;;9.40;7.45;;;;;;;20.15;100.00;99340.00;5059384;28;20032;-71
2022/06/11 06:48:26;;;;;;;9.77;7.60;;;;;;;20.21;100.00;99339.88;5060320;28;20291;-72
2022/06/11 06:50:53;;;;;;;9.30;8.35;;;;;;;19.96;100.00;99339.28;5059432;28;20338;-72
2022/06/11 06:53:18;;;;;;;19.02;8.63;;;;;;;20.03;100.00;99332.75;5041364;28;20271;-72
2022/06/11 06:55:44;;;;;;;12.70;8.27;;;;;;;20.18;100.00;99336.84;5060147;28;20021;-72
2022/06/11 06:58:10;;;;;;;9.93;7.75;;;;;;;20.09;100.00;99342.56;5059716;28;20025;-72
2022/06/11 07:00:35;;;;;;;9.55;6.43;;;;;;;20.14;100.00;99343.72;5062311;28;20092;-72
2022/06/11 07:03:00;;;;;;;12.48;6.90;;;;;;;20.24;100.00;99336.72;5060207;28;20040;-71
2022/06/11 07:05:26;;;;;;;10.85;8.00;;;;;;;20.39;100.00;99338.97;5059712;28;20039;-72
2022/06/11 07:07:52;;;;;;;9.15;6.85;;;;;;;20.47;100.00;99349.34;5061145;28;20036;-71
2022/06/11 07:10:20;;;;;;;10.50;6.80;;;;;;;20.42;100.00;99351.94;5062096;28;20040;-72
2022/06/11 07:12:45;;;;;;;11.68;7.28;;;;;;;20.38;100.00;99356.94;5041746;28;20254;-72
2022/06/11 07:15:11;;;;;;;10.60;7.32;;;;;;;20.41;100.00;99358.38;5058334;28;20033;-72
2022/06/11 07:17:43;;;;;;;14.35;7.75;;;;;;;20.47;100.00;99367.34;5058935;28;20033;-72
2022/06/11 07:20:17;;;;;;;10.88;7.20;;;;;;;20.51;100.00;99365.84;5059666;28;20040;-72
2022/06/11 07:22:55;;;;;;;11.60;7.55;;;;;;;20.40;100.00;99362.91;5058511;28;20033;-73
2022/06/11 07:25:21;;;;;;;27.75;10.57;;;;;;;20.27;100.00;99356.94;5056690;28;20074;-72
2022/06/11 07:27:52;;;;;;;18.52;11.75;;;;;;;20.13;100.00;99358.22;5059997;28;20052;-72
2022/06/11 07:30:21;;;;;;;18.75;11.90;;;;;;;20.07;100.00;99366.16;5059554;28;20037;-72
2022/06/11 07:32:53;;;;;;;11.27;7.97;;;;;;;19.93;100.00;99359.38;5058348;28;20032;-72
2022/06/11 07:35:18;;;;;;;9.55;7.68;;;;;;;20.11;100.00;99365.69;5057723;28;20195;-72
2022/06/11 07:37:48;;;;;;;10.63;8.15;;;;;;;20.17;100.00;99359.38;5059056;28;20095;-72
2022/06/11 07:40:14;;;;;;;20.05;9.07;;;;;;;20.24;100.00;99368.97;5058590;28;20104;-72
2022/06/11 07:42:39;;;;;;;13.85;8.75;;;;;;;20.41;100.00;99374.50;5058636;28;20033;-72
2022/06/11 07:45:05;;;;;;;9.80;7.90;;;;;;;20.28;100.00;99359.38;5059436;28;20029;-72
2022/06/11 07:50:15;;;;;;;8.98;7.97;;;;;;;20.42;100.00;99367.25;5058326;28;20071;-72
2022/06/11 07:52:41;;;;;;;11.65;7.60;;;;;;;20.49;100.00;99358.00;5058498;28;20326;-72
2022/06/11 07:55:08;;;;;;;9.15;8.20;;;;;;;20.63;100.00;99362.06;5058850;28;20067;-72
2022/06/11 07:57:34;;;;;;;15.68;11.25;;;;;;;20.47;100.00;99354.72;5057875;28;20245;-72
2022/06/11 07:59:59;;;;;;;9.65;7.88;;;;;;;20.58;100.00;99348.50;5058827;28;20032;-72
2022/06/11 08:02:25;;;;;;;10.27;7.78;;;;;;;20.58;100.00;99337.75;5058785;28;20040;-72
2022/06/11 08:04:51;;;;;;;9.52;7.03;;;;;;;20.65;100.00;99338.44;5058584;28;20231;-72
2022/06/11 08:07:17;;;;;;;12.27;10.23;;;;;;;20.43;100.00;99329.38;5060582;28;20319;-72
2022/06/11 08:09:42;;;;;;;14.77;10.20;;;;;;;20.23;100.00;99342.31;5060246;28;20032;-72
2022/06/11 08:12:08;;;;;;;11.23;9.88;;;;;;;19.94;100.00;99325.25;5057807;28;20043;-72
2022/06/11 08:14:34;;;;;;;12.02;10.55;;;;;;;20.07;100.00;99339.28;5045002;28;20032;-72
2022/06/11 08:17:00;;;;;;;15.50;11.98;;;;;;;19.81;100.00;99333.53;5060220;28;20346;-72
2022/06/11 08:19:25;;;;;;;10.77;8.80;;;;;;;19.63;100.00;99337.94;5061040;28;20041;-72
2022/06/11 08:21:51;;;;;;;14.73;11.95;;;;;;;19.89;100.00;99331.34;5058442;28;20221;-72
2022/06/11 08:24:16;;;;;;;11.35;9.40;;;;;;;19.63;100.00;99337.94;5061390;28;20047;-71
2022/06/11 08:26:42;;;;;;;12.23;9.48;;;;;;;19.69;100.00;99339.69;5043111;28;20058;-72
2022/06/11 08:29:07;;;;;;;11.05;7.68;;;;;;;19.88;100.00;99361.94;5057636;28;20052;-72
2022/06/11 08:31:32;;;;;;;10.70;8.00;;;;;;;19.92;100.00;99356.91;5058566;28;20033;-72
2022/06/11 08:33:58;;;;;;;28.40;10.25;;;;;;;19.92;100.00;99332.75;5058489;28;20031;-72
2022/06/11 08:36:23;;;;;;;18.48;9.40;;;;;;;19.98;100.00;99345.25;5060248;28;20029;-72
2022/06/11 08:38:49;;;;;;;17.05;9.10;;;;;;;19.80;100.00;99342.66;5058931;28;20032;-72
2022/06/11 08:41:22;;;;;;;12.38;8.80;;;;;;;19.59;100.00;99341.31;5058078;28;20035;-72
2022/06/11 08:44:04;;;;;;;13.48;8.85;;;;;;;19.51;100.00;99337.06;5057486;28;20074;-72
2022/06/11 08:46:36;;;;;;;13.10;9.60;;;;;;;19.52;100.00;99336.03;5057380;28;20040;-72
2022/06/11 08:49:04;;;;;;;20.30;13.35;;;;;;;19.68;100.00;99347.97;5057395;28;20330;-72
2022/06/11 08:51:55;;;;;;;15.75;12.73;;;;;;;19.96;100.00;99347.34;5040511;28;20067;-72
2022/06/11 08:54:25;;;;;;;40.53;11.27;;;;;;;19.99;100.00;99361.13;5040401;28;20084;-71
2022/06/11 08:57:02;;;;;;;15.52;8.57;;;;;;;20.16;100.00;99363.13;5027877;28;20020;-72
2022/06/11 08:59:47;;;;;;;13.68;8.98;;;;;;;20.25;100.00;99372.47;5058211;28;20053;-72
2022/06/11 09:02:34;;;;;;;12.93;8.25;;;;;;;20.40;100.00;99372.88;5056666;28;20044;-72
2022/06/11 09:05:08;;;;;;;16.27;10.48;;;;;;;20.17;100.00;99370.16;5058252;28;20047;-72
2022/06/11 09:08:00;;;;;;;20.85;11.13;;;;;;;20.06;100.00;99367.22;5057661;28;20078;-72
2022/06/11 09:10:54;;;;;;;18.60;9.35;;;;;;;20.02;100.00;99382.16;5058680;28;20064;-72
2022/06/11 09:13:41;;;;;;;16.02;11.00;;;;;;;19.91;100.00;99374.09;5055004;28;20226;-72
2022/06/11 09:16:15;;;;;;;16.40;11.57;;;;;;;20.01;100.00;99383.22;5055635;28;20322;-72
2022/06/11 09:19:04;;;;;;;15.52;9.98;;;;;;;20.16;100.00;99395.38;5057002;28;20043;-72
2022/06/11 09:22:02;;;;;;;17.67;13.07;;;;;;;20.25;100.00;99386.75;5057754;28;20041;-72
2022/06/11 09:24:45;;;;;;;13.15;10.00;;;;;;;20.33;100.00;99404.41;5061738;28;20350;-72
2022/06/11 09:27:15;;;;;;;15.48;9.35;;;;;;;20.38;100.00;99402.66;5060653;28;20045;-72
2022/06/11 09:29:53;;;;;;;36.85;10.40;;;;;;;20.30;100.00;99402.19;5063304;28;20039;-72
2022/06/11 09:32:45;;;;;;;23.67;9.15;;;;;;;20.26;100.00;99411.75;5064997;28;20075;-72
2022/06/11 09:35:28;;;;;;;12.93;7.93;;;;;;;20.19;100.00;99414.56;5065469;28;20067;-72
2022/06/11 09:38:20;;;;;;;10.48;7.78;;;;;;;20.00;100.00;99416.53;5060895;28;20028;-72
2022/06/11 09:40:52;;;;;;;12.18;7.97;;;;;;;19.88;100.00;99423.75;5065087;28;20065;-71
2022/06/11 09:43:48;;;;;;;13.35;7.85;;;;;;;20.05;100.00;99421.19;5065056;28;20037;-72
2022/06/11 09:46:40;;;;;;;12.52;8.50;;;;;;;19.98;100.00;99426.69;5065125;28;20049;-72
2022/06/11 09:49:34;;;;;;;12.65;8.30;;;;;;;19.99;100.00;99433.69;5065180;28;20025;-72
2022/06/11 09:52:10;;;;;;;11.65;9.18;;;;;;;19.82;100.00;99427.34;5064729;28;20044;-72
2022/06/11 09:55:01;;;;;;;19.27;9.32;;;;;;;19.98;100.00;99428.56;5065031;28;20021;-72
2022/06/11 09:58:05;;;;;;;13.85;9.70;;;;;;;19.76;100.00;99426.38;5059686;28;20060;-72
2022/06/11 10:00:38;;;;;;;13.30;10.13;;;;;;;19.94;100.00;99420.13;5065067;28;20040;-72
2022/06/11 10:03:31;;;;;;;13.85;10.55;;;;;;;20.13;100.00;99417.34;5064680;28;20330;-72
2022/06/11 10:06:20;;;;;;;14.85;10.70;;;;;;;20.18;100.00;99423.69;5060293;28;20349;-72
2022/06/11 10:08:58;;;;;;;14.93;11.52;;;;;;;20.28;100.00;99423.91;5064159;28;20024;-72
2022/06/11 10:11:38;;;;;;;12.48;9.57;;;;;;;20.23;100.00;99428.34;5059351;28;20115;-72
2022/06/11 10:14:36;;;;;;;11.85;9.38;;;;;;;20.49;100.00;99419.88;5064605;28;20033;-72
2022/06/11 10:17:37;;;;;;;20.13;9.15;;;;;;;20.67;100.00;99418.91;5064369;28;20041;-72
2022/06/11 10:20:18;;;;;;;14.20;9.77;;;;;;;20.81;100.00;99411.44;5064326;28;20155;-72
2022/06/11 10:22:56;;;;;;;12.23;8.75;;;;;;;21.13;100.00;99409.97;5063311;28;20064;-72
2022/06/11 10:25:41;;;;;;;10.50;8.80;;;;;;;21.10;100.00;99409.63;5060010;28;20025;-72
2022/06/11 10:28:25;;;;;;;10.48;6.70;;;;;;;21.31;100.00;99406.31;5058593;28;20083;-72
2022/06/11 10:30:56;;;;;;;;;;;;;;;21.45;100.00;99412.22;5053718;28;20029;-72
2022/06/11 10:33:49;;;;;;;9.48;5.95;;;;;;;21.46;100.00;99411.16;5058849;28;20202;-72
2022/06/11 10:36:22;;;;;;;6.63;5.93;;;;;;;21.40;100.00;99402.16;5059975;28;20211;-72
2022/06/11 10:38:56;;;;;;;9.65;7.28;;;;;;;21.63;100.00;99415.53;5042212;28;20024;-72
2022/06/11 10:41:49;;;;;;;9.82;6.57;;;;;;;21.62;100.00;99416.59;5059254;28;20049;-72
2022/06/11 10:44:43;;;;;;;6.78;5.78;;;;;;;21.45;100.00;99414.91;5058445;28;20078;-72
2022/06/11 10:47:16;;;;;;;6.43;5.38;;;;;;;21.45;100.00;99413.03;5057294;28;20033;-72
2022/06/11 10:49:43;;;;;;;8.48;6.32;;;;;;;21.50;100.00;99409.63;5060370;28;20029;-72
2022/06/11 10:52:34;;;;;;;6.55;5.38;;;;;;;21.49;100.00;99413.38;5061672;28;20059;-73
2022/06/11 10:54:59;;;;;;;9.63;5.57;;;;;;;21.51;100.00;99403.19;5061845;28;20040;-72
2022/06/11 10:57:28;;;;;;;6.82;4.80;;;;;;;21.52;100.00;99399.41;5060261;28;20250;-72
2022/06/11 11:00:12;;;;;;;7.05;5.15;;;;;;;21.56;100.00;99401.41;5059297;28;20039;-72
2022/06/11 11:02:48;;;;;;;7.05;5.82;;;;;;;21.72;100.00;99391.69;5060670;28;20327;-72
2022/06/11 11:05:18;;;;;;;7.47;5.15;;;;;;;21.78;100.00;99393.41;5062412;28;20036;-72
2022/06/11 11:07:59;;;;;;;8.60;4.55;;;;;;;22.05;100.00;99393.66;5058676;28;20029;-72
2022/06/11 11:10:30;;;;;;;9.98;7.10;;;;;;;22.14;100.00;99391.38;5057477;28;20333;-72
2022/06/11 11:12:59;;;;;;;7.70;6.43;;;;;;;22.16;100.00;99387.38;5056659;28;20033;-72
2022/06/11 11:15:28;;;;;;;17.30;5.80;;;;;;;22.16;100.00;99392.75;5059557;28;20029;-72
2022/06/11 11:17:59;;;;;;;5.57;4.43;;;;;;;22.19;100.00;99388.75;5058805;28;20045;-72
2022/06/11 11:20:39;;;;;;;8.48;5.25;;;;;;;22.53;100.00;99389.53;5058920;28;20306;-72
2022/06/11 11:23:10;;;;;;;10.05;5.63;;;;;;;22.58;100.00;99382.31;5056788;28;20029;-72
2022/06/11 11:25:38;;;;;;;6.07;5.50;;;;;;;22.61;100.00;99386.41;5059542;28;20056;-72
2022/06/11 11:28:05;;;;;;;6.07;4.95;;;;;;;22.56;100.00;99383.63;5059048;28;20021;-72
2022/06/11 11:30:36;;;;;;;5.82;4.80;;;;;;;22.51;100.00;99380.88;5038600;28;20113;-72
2022/06/11 11:33:26;;;;;;;5.97;4.90;;;;;;;22.65;100.00;99384.03;5059158;28;20029;-72
2022/06/11 11:36:10;;;;;;;5.60;4.30;;;;;;;22.79;99.04;99380.72;5058996;28;20279;-72
2022/06/11 11:38:36;;;;;;;5.38;4.30;;;;;;;22.84;100.00;99380.81;5056786;28;20315;-72
2022/06/11 11:41:03;;;;;;;6.20;4.00;;;;;;;22.87;98.80;99369.50;5061975;28;20033;-72